Time;durP1;ratioP1;P1;durP2;ratioP2;P2;SDS_P1;SDS_P2;PMS_P1;PMS_P2;Temp;Humidity;BMP_temperature;BMP_pressure;BME280_temperature;BME280_humidity;BME280_pressure;Samples;Min_cycle;Max_cycle;Signal;HPM_P1;HPM_P2
2023/09/10 00:01:23;;;;;;;9.65;6.85;;;;;;;-145.63;55.06;39198.31;5024912;28;20025;-64
2023/09/10 00:03:49;;;;;;;10.32;6.88;;;;;;;-145.63;55.10;39198.31;5024298;28;20364;-64
2023/09/10 00:06:15;;;;;;;12.00;6.78;;;;;;;-145.63;55.36;39192.44;5024742;28;20029;-64
2023/09/10 00:08:41;;;;;;;11.70;7.20;;;;;;;-145.63;55.49;39227.63;5024654;28;20030;-63
2023/09/10 00:11:06;;;;;;;9.55;7.13;;;;;;;-145.63;55.36;39229.59;5010734;28;20085;-64
2023/09/10 00:13:32;;;;;;;9.13;6.55;;;;;;;-145.63;55.73;39202.22;5018322;28;20195;-64
2023/09/10 00:15:58;;;;;;;8.82;6.75;;;;;;;-145.63;55.73;39215.91;5024448;28;20148;-65
2023/09/10 00:18:24;;;;;;;8.68;7.03;;;;;;;-145.63;55.66;39043.81;5023154;28;20168;-64
2023/09/10 00:20:53;;;;;;;10.13;7.18;;;;;;;-145.63;55.51;39239.38;5024222;28;20089;-64
2023/09/10 00:23:19;;;;;;;11.15;7.53;;;;;;;-145.63;55.69;39204.16;5004472;28;20026;-63
2023/09/10 00:25:45;;;;;;;14.02;7.18;;;;;;;-145.63;55.91;38920.59;5019660;28;20049;-64
2023/09/10 00:28:10;;;;;;;9.77;6.82;;;;;;;-145.63;55.72;39223.72;5022894;28;20092;-63
2023/09/10 00:30:36;;;;;;;8.07;6.63;;;;;;;-145.63;55.59;39182.66;5024074;28;20022;-65
2023/09/10 00:33:02;;;;;;;9.68;6.97;;;;;;;-145.63;55.01;39190.47;5023949;28;20353;-64
2023/09/10 00:35:28;;;;;;;9.02;6.85;;;;;;;-145.63;55.50;39219.81;5024297;28;20026;-64
2023/09/10 00:37:54;;;;;;;9.18;7.22;;;;;;;-145.63;54.83;39178.75;5023945;28;20036;-64
2023/09/10 00:40:19;;;;;;;7.40;6.70;;;;;;;-145.63;54.78;39204.16;5024152;28;20026;-64
2023/09/10 00:42:45;;;;;;;7.78;6.03;;;;;;;-145.63;55.37;39241.31;5023803;28;20128;-65
2023/09/10 00:45:15;;;;;;;9.77;6.97;;;;;;;-145.63;55.09;39200.25;5023833;28;20040;-65
2023/09/10 00:47:46;;;;;;;8.70;7.60;;;;;;;-145.63;54.76;39215.91;5023980;28;20034;-65
2023/09/10 00:50:14;;;;;;;10.63;7.68;;;;;;;-145.63;54.51;38742.66;5023804;28;20025;-64
2023/09/10 00:52:46;;;;;;;11.15;7.30;;;;;;;-145.63;54.50;39217.84;5023757;28;20032;-64
2023/09/10 00:55:13;;;;;;;8.75;7.22;;;;;;;-145.63;55.29;39229.59;5022570;28;20026;-65
2023/09/10 00:57:39;;;;;;;11.77;7.80;;;;;;;-145.63;54.65;39243.28;5023692;28;20026;-64
2023/09/10 01:00:09;;;;;;;9.05;7.38;;;;;;;-145.63;54.74;39206.13;5022632;28;20085;-65
2023/09/10 01:02:34;;;;;;;8.98;8.07;;;;;;;-145.63;55.32;39253.06;5022824;28;20029;-65
2023/09/10 01:05:01;;;;;;;8.60;7.47;;;;;;;-145.63;55.06;39241.31;5023326;28;20269;-65
2023/09/10 01:07:26;;;;;;;10.73;7.57;;;;;;;-145.63;55.03;39219.81;5024052;28;20068;-64
2023/09/10 01:09:52;;;;;;;9.40;6.80;;;;;;;-145.63;55.28;39239.38;5022144;28;20038;-65
2023/09/10 01:12:41;;;;;;;8.40;7.22;;;;;;;-145.63;55.01;39208.06;5022656;28;20053;-63
2023/09/10 01:15:25;;;;;;;11.07;7.93;;;;;;;-145.63;55.08;39223.72;4992856;28;20041;-64
2023/09/10 01:17:50;;;;;;;10.57;8.27;;;;;;;-145.63;55.24;39235.47;5023214;28;20032;-65
2023/09/10 01:20:37;;;;;;;11.35;8.32;;;;;;;-145.63;54.40;39204.16;5023466;28;20085;-65
2023/09/10 01:23:07;;;;;;;12.32;8.40;;;;;;;-145.63;54.98;39239.38;5023184;28;20026;-65
2023/09/10 01:25:33;;;;;;;8.73;7.07;;;;;;;-145.63;54.11;39206.13;5022131;28;20076;-64
2023/09/10 01:28:03;;;;;;;8.10;7.30;;;;;;;-145.63;54.72;39192.44;5023354;28;20036;-64
2023/09/10 01:30:31;;;;;;;10.90;8.10;;;;;;;-145.63;54.17;39208.06;5023185;28;20026;-65
2023/09/10 01:33:02;;;;;;;8.68;7.88;;;;;;;-145.63;54.04;39219.81;5023205;28;20026;-64
2023/09/10 01:35:53;;;;;;;9.50;8.07;;;;;;;-145.63;54.44;39200.25;5009141;28;20030;-64
2023/09/10 01:38:21;;;;;;;10.85;7.97;;;;;;;-145.63;54.74;39223.72;5029218;28;20340;-64
2023/09/10 01:40:54;;;;;;;11.88;8.07;;;;;;;-145.63;54.09;38787.63;5029438;28;20034;-64
2023/09/10 01:43:20;;;;;;;9.95;8.57;;;;;;;-145.63;54.11;39208.06;5029904;28;20366;-63
2023/09/10 01:45:48;;;;;;;13.38;8.18;;;;;;;-145.63;53.80;39219.81;5029408;28;20043;-64
2023/09/10 01:48:14;;;;;;;10.93;8.10;;;;;;;-145.63;53.95;39231.53;5029913;28;20076;-65
2023/09/10 01:50:39;;;;;;;8.73;7.90;;;;;;;-145.63;53.94;39227.63;5029677;28;20029;-64
2023/09/10 01:53:05;;;;;;;9.93;8.93;;;;;;;-145.63;53.90;39215.91;5029520;28;20044;-65
2023/09/10 01:55:30;;;;;;;9.50;8.60;;;;;;;-145.63;54.28;39212.00;5029854;28;20030;-65
2023/09/10 01:57:56;;;;;;;10.18;9.18;;;;;;;-145.63;53.69;39233.50;5028513;28;20021;-65
2023/09/10 02:00:22;;;;;;;10.00;8.75;;;;;;;-145.63;54.09;39223.72;5029659;28;20053;-64
2023/09/10 02:02:48;;;;;;;9.50;8.60;;;;;;;-145.63;53.68;39202.22;5029474;28;20517;-63
2023/09/10 02:05:14;;;;;;;9.38;8.50;;;;;;;-145.63;53.64;39194.38;5029432;28;20041;-64
2023/09/10 02:07:39;;;;;;;11.07;8.82;;;;;;;-145.63;53.54;39184.59;5029528;28;20026;-64
2023/09/10 02:10:06;;;;;;;9.70;8.70;;;;;;;-145.63;53.80;39200.25;5029083;28;20044;-64
2023/09/10 02:12:33;;;;;;;9.38;8.48;;;;;;;-145.63;53.57;39266.75;5029640;28;20026;-65
2023/09/10 02:15:00;;;;;;;11.80;8.98;;;;;;;-145.63;53.96;39239.38;5029673;28;20028;-65
2023/09/10 02:17:26;;;;;;;9.48;8.57;;;;;;;-145.63;53.51;39233.50;5029770;28;20282;-63
2023/09/10 02:19:52;;;;;;;9.98;9.00;;;;;;;-145.63;53.80;39258.94;5029353;28;20040;-64
2023/09/10 02:22:17;;;;;;;10.30;9.07;;;;;;;-145.63;53.17;39235.47;5029673;28;20022;-64
2023/09/10 02:24:49;;;;;;;10.93;9.55;;;;;;;-145.63;53.39;39223.72;5029429;28;20235;-65
2023/09/10 02:27:15;;;;;;;9.57;8.57;;;;;;;-145.63;53.02;39264.78;5029369;28;20034;-65
2023/09/10 02:29:41;;;;;;;11.38;10.18;;;;;;;-145.63;53.30;39215.91;5029426;28;20183;-64
2023/09/10 02:32:06;;;;;;;9.85;8.82;;;;;;;-145.63;53.50;39237.41;5027842;28;20018;-64
2023/09/10 02:34:32;;;;;;;10.38;9.30;;;;;;;-145.63;53.34;39237.41;5029222;28;20361;-64
2023/09/10 02:36:59;;;;;;;10.27;9.02;;;;;;;-145.63;53.23;39212.00;5027973;28;20032;-64
2023/09/10 02:39:25;;;;;;;11.75;9.90;;;;;;;-145.63;53.50;39200.25;5029201;28;20024;-63
2023/09/10 02:41:51;;;;;;;11.25;9.80;;;;;;;-145.63;53.53;39231.53;5027908;28;20214;-64
2023/09/10 02:44:16;;;;;;;9.45;8.38;;;;;;;-145.63;53.25;39233.50;5029200;28;20313;-65
2023/09/10 02:46:42;;;;;;;11.73;9.85;;;;;;;-145.63;53.48;39204.16;5026596;28;20037;-64
2023/09/10 02:49:07;;;;;;;12.05;9.77;;;;;;;-145.63;52.91;39215.91;5025757;28;20234;-64
2023/09/10 02:51:33;;;;;;;10.10;9.10;;;;;;;-145.63;53.27;39186.56;5025577;28;20030;-64
2023/09/10 02:53:59;;;;;;;10.35;9.27;;;;;;;-145.63;53.17;39219.81;5025807;28;20022;-64
2023/09/10 02:56:24;;;;;;;10.13;9.13;;;;;;;-145.63;53.73;39247.19;5026177;28;20034;-64
2023/09/10 02:58:50;;;;;;;11.07;8.82;;;;;;;-145.63;53.67;39233.50;5025604;28;20036;-65
2023/09/10 03:01:15;;;;;;;10.02;9.02;;;;;;;-145.63;53.33;39178.75;5025810;28;20213;-64
2023/09/10 03:03:41;;;;;;;11.88;10.10;;;;;;;-145.63;53.57;39227.63;5025821;28;20037;-64
2023/09/10 03:06:12;;;;;;;11.80;9.90;;;;;;;-145.63;54.10;39237.41;5025735;28;20029;-65
2023/09/10 03:08:38;;;;;;;11.87;10.67;;;;;;;-145.63;54.54;39225.69;5024921;28;20048;-65
2023/09/10 03:11:04;;;;;;;11.13;10.02;;;;;;;-145.63;53.67;39212.00;5025612;28;20802;-63
2023/09/10 03:13:30;;;;;;;11.35;10.15;;;;;;;-145.63;53.80;39225.69;5024598;28;20037;-66
2023/09/10 03:15:55;;;;;;;10.93;9.77;;;;;;;-145.63;53.73;39227.63;5025623;28;20026;-65
2023/09/10 03:18:21;;;;;;;11.05;9.75;;;;;;;-145.63;54.13;39208.06;5025692;28;20053;-66
2023/09/10 03:20:47;;;;;;;11.05;10.00;;;;;;;-145.63;53.47;39258.94;5025371;28;20026;-65
2023/09/10 03:23:12;;;;;;;11.88;10.68;;;;;;;-145.63;53.63;39266.75;5025384;28;20030;-66
2023/09/10 03:25:39;;;;;;;11.38;10.30;;;;;;;-145.63;53.54;39210.03;5025579;28;20034;-65
2023/09/10 03:28:05;;;;;;;14.10;11.05;;;;;;;-145.63;54.25;39233.50;5025684;28;20354;-64
2023/09/10 03:30:31;;;;;;;11.43;10.25;;;;;;;-145.63;54.31;39241.31;5007986;28;20034;-63
2023/09/10 03:32:57;;;;;;;10.85;9.80;;;;;;;-145.63;53.88;39208.06;5025181;28;20029;-65
2023/09/10 03:35:22;;;;;;;11.55;9.75;;;;;;;-145.63;53.60;39176.78;5025232;28;20025;-64
2023/09/10 03:37:48;;;;;;;11.27;10.10;;;;;;;-145.63;53.75;39237.41;5025169;28;20076;-65
2023/09/10 03:40:14;;;;;;;10.68;9.57;;;;;;;-145.63;54.15;39239.38;5024153;28;20226;-64
2023/09/10 03:42:40;;;;;;;11.27;10.10;;;;;;;-145.63;53.88;39223.72;5023963;28;20217;-65
2023/09/10 03:45:06;;;;;;;13.38;10.45;;;;;;;-145.63;54.15;39206.13;5025068;28;20038;-65
2023/09/10 03:47:33;;;;;;;11.13;10.02;;;;;;;-145.63;53.94;39253.06;5025051;28;20033;-64
2023/09/10 03:50:00;;;;;;;11.82;10.63;;;;;;;-145.63;53.86;39251.09;5024998;28;20018;-64
2023/09/10 03:52:26;;;;;;;10.73;9.60;;;;;;;-145.63;53.67;39219.81;5024778;28;20040;-65
2023/09/10 03:54:51;;;;;;;14.48;9.63;;;;;;;-145.63;54.06;39223.72;5023583;28;20037;-64
2023/09/10 03:57:17;;;;;;;11.48;10.25;;;;;;;-145.63;53.38;39204.16;5024577;28;20188;-65
2023/09/10 03:59:43;;;;;;;9.82;8.85;;;;;;;-145.63;53.69;39247.19;5024945;28;20030;-64
2023/09/10 04:02:10;;;;;;;10.75;9.55;;;;;;;-145.63;53.64;39212.00;5024704;28;20210;-63
2023/09/10 04:04:36;;;;;;;13.02;9.52;;;;;;;-145.63;53.83;39204.16;5024688;28;20026;-63
2023/09/10 04:07:02;;;;;;;11.35;10.15;;;;;;;-145.63;53.98;39255.00;5024565;28;20076;-63
2023/09/10 04:09:29;;;;;;;12.88;11.57;;;;;;;-145.63;54.28;39241.31;5024561;28;20195;-64
2023/09/10 04:11:54;;;;;;;12.05;10.45;;;;;;;-145.63;54.34;39212.00;5024644;28;20033;-64
2023/09/10 04:14:20;;;;;;;12.45;10.80;;;;;;;-145.63;54.25;39270.66;5024510;28;20018;-65
2023/09/10 04:16:46;;;;;;;12.63;10.75;;;;;;;-145.63;53.80;39235.47;5024360;28;20155;-63
2023/09/10 04:19:12;;;;;;;14.32;11.13;;;;;;;-145.63;54.49;39247.19;5024537;28;20060;-64
2023/09/10 04:21:37;;;;;;;15.02;10.68;;;;;;;-145.63;53.83;39233.50;5024537;28;20040;-64
2023/09/10 04:24:05;;;;;;;14.38;11.23;;;;;;;-145.63;54.29;39204.16;5024242;28;20042;-65
2023/09/10 04:26:31;;;;;;;11.43;10.32;;;;;;;-145.63;53.88;39239.38;5024319;28;20342;-63
2023/09/10 04:28:56;;;;;;;12.25;10.48;;;;;;;-145.63;53.72;39215.91;5011768;28;20028;-63
2023/09/10 04:31:22;;;;;;;11.70;10.50;;;;;;;-145.63;54.05;39212.00;5029363;28;20025;-63
2023/09/10 04:33:48;;;;;;;13.30;11.38;;;;;;;-145.63;53.83;39247.19;5024108;28;20314;-64
2023/09/10 04:36:14;;;;;;;12.27;11.07;;;;;;;-145.63;54.56;39239.38;5024097;28;20034;-63
2023/09/10 04:38:40;;;;;;;13.88;11.57;;;;;;;-145.63;53.92;39260.88;5024252;28;20298;-64
2023/09/10 04:41:06;;;;;;;13.40;11.48;;;;;;;-145.63;54.00;39247.19;5023703;28;20026;-65
2023/09/10 04:43:31;;;;;;;12.43;10.82;;;;;;;-145.63;54.00;39247.19;5023715;28;20063;-64
2023/09/10 04:45:57;;;;;;;13.32;12.02;;;;;;;-145.63;53.84;39245.25;5023950;28;20046;-64
2023/09/10 04:48:23;;;;;;;12.00;10.80;;;;;;;-145.63;53.80;39243.28;5023728;28;20026;-65
2023/09/10 04:50:48;;;;;;;13.48;11.63;;;;;;;-145.63;53.95;39204.16;5023674;28;20132;-63
2023/09/10 04:53:16;;;;;;;12.63;11.23;;;;;;;-145.63;54.49;39258.94;5023929;28;20167;-63
2023/09/10 04:55:42;;;;;;;15.50;12.35;;;;;;;-145.63;53.77;39256.97;5023638;28;20025;-63
2023/09/10 04:58:07;;;;;;;12.65;10.35;;;;;;;-145.63;53.96;39233.50;5023754;28;20026;-64
2023/09/10 05:00:33;;;;;;;14.38;12.05;;;;;;;-145.63;53.75;39235.47;5023624;28;20025;-64
2023/09/10 05:02:58;;;;;;;12.98;11.13;;;;;;;-145.63;53.42;39219.81;5023614;28;20030;-65
2023/09/10 05:05:24;;;;;;;13.40;10.45;;;;;;;-145.63;53.65;39208.06;5023731;28;20029;-65
2023/09/10 05:07:50;;;;;;;13.13;10.65;;;;;;;-145.63;54.00;39215.91;5023255;28;20042;-64
2023/09/10 05:10:16;;;;;;;12.45;11.15;;;;;;;-145.63;53.38;39223.72;5022759;28;20191;-65
2023/09/10 05:12:42;;;;;;;12.57;11.23;;;;;;;-145.63;53.61;39255.00;5023319;28;20033;-63
2023/09/10 05:15:10;;;;;;;14.80;12.25;;;;;;;-145.63;54.07;39260.88;5023482;28;20042;-63
2023/09/10 05:17:37;;;;;;;12.93;11.55;;;;;;;-145.63;53.82;39239.38;5023435;28;20089;-62
2023/09/10 05:20:03;;;;;;;14.38;12.32;;;;;;;-145.63;54.12;39251.09;5023226;28;20026;-65
2023/09/10 05:22:29;;;;;;;13.55;11.82;;;;;;;-145.63;54.35;39243.28;5023408;28;20222;-64
2023/09/10 05:24:55;;;;;;;17.45;12.32;;;;;;;-145.63;53.77;39223.72;5023179;28;20037;-64
2023/09/10 05:27:20;;;;;;;15.90;12.05;;;;;;;-145.63;54.05;38685.94;5023142;28;20037;-65
2023/09/10 05:29:46;;;;;;;14.68;12.15;;;;;;;-145.63;53.75;39247.19;5023484;28;20040;-64
2023/09/10 05:32:13;;;;;;;14.48;11.95;;;;;;;-145.63;54.11;39258.94;5023528;28;20022;-64
2023/09/10 05:34:38;;;;;;;17.20;12.63;;;;;;;-145.63;54.09;39223.72;5023267;28;20026;-65
2023/09/10 05:37:04;;;;;;;14.73;12.32;;;;;;;-145.63;53.97;39208.06;5023287;28;20032;-64
2023/09/10 05:39:30;;;;;;;13.68;12.25;;;;;;;-145.63;53.95;39206.13;5023229;28;20025;-64
2023/09/10 05:41:55;;;;;;;14.52;12.00;;;;;;;-145.63;53.99;39239.38;5023069;28;20222;-65
2023/09/10 05:44:21;;;;;;;13.32;10.93;;;;;;;-145.63;53.44;39170.91;5023197;28;20084;-65
2023/09/10 05:46:49;;;;;;;12.65;11.45;;;;;;;-145.63;53.73;39233.50;5023213;28;20072;-65
2023/09/10 05:49:15;;;;;;;13.95;11.25;;;;;;;-145.63;53.79;39217.84;5023214;28;20033;-63
2023/09/10 05:51:41;;;;;;;18.95;13.02;;;;;;;-145.63;54.42;39251.09;5022130;28;20025;-64
2023/09/10 05:54:06;;;;;;;14.77;12.00;;;;;;;-145.63;54.49;39237.41;5022967;28;20232;-65
2023/09/10 05:56:32;;;;;;;12.10;10.90;;;;;;;-145.63;54.03;39264.78;5023131;28;20030;-64
2023/09/10 05:58:58;;;;;;;13.30;11.90;;;;;;;-145.63;53.99;39251.09;5023105;28;20022;-64
2023/09/10 06:01:23;;;;;;;13.90;12.48;;;;;;;-145.63;54.05;39251.09;5023169;28;20025;-64
2023/09/10 06:03:49;;;;;;;14.52;12.05;;;;;;;-145.63;54.26;39212.00;5022868;28;20318;-63
2023/09/10 06:06:15;;;;;;;14.00;11.88;;;;;;;-145.63;53.63;39241.31;5023330;28;20198;-63
2023/09/10 06:08:40;;;;;;;13.57;12.18;;;;;;;-145.63;53.72;39270.66;5023187;28;20060;-64
2023/09/10 06:11:06;;;;;;;16.05;13.05;;;;;;;-145.63;53.91;39208.06;5023295;28;20034;-64
2023/09/10 06:13:32;;;;;;;17.48;13.48;;;;;;;-145.63;53.56;39219.81;5000715;28;20030;-64
2023/09/10 06:15:58;;;;;;;13.20;11.90;;;;;;;-145.63;53.64;39188.53;5008571;28;20037;-65
2023/09/10 06:18:24;;;;;;;14.05;12.50;;;;;;;-145.63;53.82;39239.38;5022933;28;20110;-64
2023/09/10 06:20:49;;;;;;;12.50;11.27;;;;;;;-145.63;53.74;39258.94;5024290;28;20030;-63
2023/09/10 06:23:15;;;;;;;15.38;12.38;;;;;;;-145.63;53.76;39208.06;5026656;28;20041;-64
2023/09/10 06:25:41;;;;;;;13.82;12.32;;;;;;;-145.63;53.64;39227.63;5026992;28;20052;-65
2023/09/10 06:28:07;;;;;;;16.10;13.02;;;;;;;-145.63;53.63;39227.63;5026436;28;20072;-65
2023/09/10 06:30:32;;;;;;;16.00;13.27;;;;;;;-145.63;54.30;39223.72;5026344;28;20030;-65
2023/09/10 06:32:58;;;;;;;13.50;11.85;;;;;;;-145.63;54.24;39262.84;5026526;28;20021;-65
2023/09/10 06:35:25;;;;;;;15.85;13.38;;;;;;;-145.63;53.97;39215.91;5026362;28;20033;-64
2023/09/10 06:37:51;;;;;;;14.98;13.48;;;;;;;-145.63;53.88;39247.19;5026384;28;20037;-64
2023/09/10 06:40:16;;;;;;;15.45;13.70;;;;;;;-145.63;53.80;39243.28;5026220;28;20033;-65
2023/09/10 06:42:44;;;;;;;16.38;14.68;;;;;;;-145.63;54.17;38887.34;5026187;28;20034;-66
2023/09/10 06:45:10;;;;;;;16.75;14.95;;;;;;;-145.63;54.55;39256.97;5026253;28;20022;-64
2023/09/10 06:47:35;;;;;;;16.83;14.88;;;;;;;-145.63;53.98;39227.63;5026207;28;20080;-64
2023/09/10 06:50:02;;;;;;;15.40;13.75;;;;;;;-145.63;53.68;39176.78;5026544;28;20040;-64
2023/09/10 06:52:29;;;;;;;16.17;14.48;;;;;;;-145.63;53.58;39229.59;5026574;28;20021;-65
2023/09/10 06:54:55;;;;;;;16.23;14.45;;;;;;;-145.63;53.34;39200.25;5026093;28;20129;-64
2023/09/10 06:57:21;;;;;;;16.60;14.70;;;;;;;-145.63;53.50;39219.81;5026119;28;20044;-65
2023/09/10 06:59:46;;;;;;;18.75;15.38;;;;;;;-145.63;53.24;39212.00;5024724;28;20026;-64
2023/09/10 07:02:12;;;;;;;17.33;15.13;;;;;;;-145.63;53.30;39223.72;5025915;28;20025;-64
2023/09/10 07:04:47;;;;;;;17.65;15.85;;;;;;;-145.63;53.53;39239.38;5025691;28;20044;-64
2023/09/10 07:07:14;;;;;;;19.88;16.27;;;;;;;-145.63;52.76;39210.03;5025889;28;20021;-65
2023/09/10 07:09:40;;;;;;;16.70;15.10;;;;;;;-145.63;53.07;39217.84;5025755;28;20034;-65
2023/09/10 07:12:06;;;;;;;16.65;14.93;;;;;;;-145.63;52.95;39264.78;5026001;28;20044;-65
2023/09/10 07:14:32;;;;;;;18.70;16.70;;;;;;;-145.63;53.29;39202.22;5026064;28;20033;-65
2023/09/10 07:16:58;;;;;;;19.35;16.20;;;;;;;-145.63;52.47;39223.72;5025458;28;20132;-65
2023/09/10 07:19:24;;;;;;;19.40;17.23;;;;;;;-145.63;52.82;39266.75;5025426;28;20038;-64
2023/09/10 07:21:49;;;;;;;21.33;16.67;;;;;;;-145.63;52.87;39200.25;5025588;28;20045;-65
2023/09/10 07:24:15;;;;;;;21.45;17.48;;;;;;;-145.63;52.58;39208.06;5025407;28;20134;-64
2023/09/10 07:26:41;;;;;;;21.45;17.58;;;;;;;-145.63;52.75;39210.03;5025511;28;20022;-65
2023/09/10 07:29:08;;;;;;;20.02;17.25;;;;;;;-145.63;52.97;39215.91;5025307;28;20065;-64
2023/09/10 07:31:35;;;;;;;21.52;17.20;;;;;;;-145.63;53.13;39239.38;5024743;28;20022;-64
2023/09/10 07:34:02;;;;;;;18.48;16.23;;;;;;;-145.63;53.06;39204.16;5024672;28;20026;-65
2023/09/10 07:36:28;;;;;;;17.85;16.05;;;;;;;-145.63;52.71;39192.44;5025055;28;20025;-65
2023/09/10 07:38:55;;;;;;;19.92;17.83;;;;;;;-145.63;52.71;39213.94;5025183;28;20326;-64
2023/09/10 07:41:21;;;;;;;18.45;16.63;;;;;;;-145.63;53.04;39210.03;5025050;28;20032;-64
2023/09/10 07:43:47;;;;;;;18.85;16.33;;;;;;;-145.63;52.46;39196.34;5025050;28;20036;-65
2023/09/10 07:46:13;;;;;;;17.30;15.43;;;;;;;-145.63;52.69;39245.25;5025113;28;20034;-63
2023/09/10 07:48:38;;;;;;;21.58;16.85;;;;;;;-145.63;52.96;39194.38;5025059;28;20218;-64
2023/09/10 07:51:05;;;;;;;20.50;17.30;;;;;;;-145.63;52.78;39245.25;5024853;28;20057;-63
2023/09/10 07:53:31;;;;;;;20.40;17.17;;;;;;;-145.63;52.97;39202.22;5024984;28;20080;-63
2023/09/10 07:55:58;;;;;;;19.65;17.38;;;;;;;-145.63;53.20;39206.13;5024813;28;20033;-64
2023/09/10 07:58:23;;;;;;;18.90;16.75;;;;;;;-145.63;52.77;39206.13;5024760;28;20029;-62
2023/09/10 08:00:55;;;;;;;18.65;16.70;;;;;;;-145.63;53.08;39262.84;5021324;28;20050;-65
2023/09/10 08:03:20;;;;;;;18.52;16.52;;;;;;;-145.63;53.08;39227.63;5005201;28;20037;-62
2023/09/10 08:05:46;;;;;;;21.33;18.17;;;;;;;-145.63;52.80;39210.03;5023925;28;20033;-63
2023/09/10 08:08:11;;;;;;;19.77;17.77;;;;;;;-145.63;52.67;39190.47;5024654;28;20325;-63
2023/09/10 08:10:37;;;;;;;18.63;16.73;;;;;;;-145.63;52.74;39198.31;5024689;28;20091;-63
2023/09/10 08:13:03;;;;;;;21.38;16.65;;;;;;;-145.63;52.47;39192.44;5023194;28;20026;-64
2023/09/10 08:15:32;;;;;;;18.63;16.73;;;;;;;-145.63;52.29;39192.44;5024587;28;20029;-64
2023/09/10 08:17:59;;;;;;;16.88;15.05;;;;;;;-145.63;52.67;39204.16;5007056;28;20268;-63
2023/09/10 08:20:24;;;;;;;17.73;15.80;;;;;;;-145.63;52.27;39186.56;5023491;28;20084;-66
2023/09/10 08:22:50;;;;;;;22.88;17.88;;;;;;;-145.63;52.88;39157.22;5024113;28;20029;-64
2023/09/10 08:25:16;;;;;;;20.15;17.27;;;;;;;-145.63;52.61;39200.25;5024810;28;20246;-65
2023/09/10 08:27:42;;;;;;;18.10;16.23;;;;;;;-145.63;52.70;39204.16;5024354;28;20038;-65
2023/09/10 08:30:09;;;;;;;18.60;16.52;;;;;;;-145.63;52.31;39200.25;5024276;28;20210;-65
2023/09/10 08:32:37;;;;;;;19.42;16.38;;;;;;;-145.63;52.21;39206.13;5024314;28;20034;-64
2023/09/10 08:35:04;;;;;;;20.13;17.40;;;;;;;-145.63;52.14;39213.94;5024375;28;20025;-64
2023/09/10 08:37:31;;;;;;;21.33;17.73;;;;;;;-145.63;52.40;39202.22;5024370;28;20255;-63
2023/09/10 08:39:57;;;;;;;20.00;17.90;;;;;;;-145.63;52.29;39223.72;5023817;28;20021;-63
2023/09/10 08:42:38;;;;;;;19.75;17.35;;;;;;;-145.63;51.98;39182.66;5024094;28;20368;-63
2023/09/10 08:45:09;;;;;;;25.67;17.27;;;;;;;-145.63;51.68;39182.66;5004173;28;20426;-64
2023/09/10 08:47:40;;;;;;;18.70;16.70;;;;;;;-145.63;52.21;39241.31;5021547;28;20033;-63
2023/09/10 08:50:13;;;;;;;18.65;15.85;;;;;;;-145.63;51.83;39204.16;5023969;28;20033;-63
2023/09/10 08:52:41;;;;;;;17.10;15.30;;;;;;;-145.63;51.62;39221.78;5024091;28;20056;-63
2023/09/10 08:55:08;;;;;;;18.58;16.60;;;;;;;-145.63;51.32;39190.47;5023728;28;20056;-63
2023/09/10 08:57:37;;;;;;;24.85;22.00;;;;;;;-145.63;51.28;39188.53;5023741;28;20199;-64
2023/09/10 09:00:07;;;;;;;18.80;16.80;;;;;;;-145.63;51.64;39149.41;5023637;28;20318;-65
2023/09/10 09:02:32;;;;;;;17.95;16.05;;;;;;;-145.63;51.69;39192.44;5023631;28;20032;-63
2023/09/10 09:04:58;;;;;;;17.35;15.65;;;;;;;-145.63;51.11;39198.31;5023830;28;20049;-64
2023/09/10 09:07:31;;;;;;;20.35;17.25;;;;;;;-145.63;51.77;39190.47;5024068;28;20246;-65
2023/09/10 09:10:00;;;;;;;20.10;18.08;;;;;;;-145.63;51.92;39251.09;5023546;28;20026;-65
2023/09/10 09:12:31;;;;;;;21.98;16.73;;;;;;;-145.63;51.08;39219.81;5023668;28;20060;-66
2023/09/10 09:14:57;;;;;;;18.52;16.52;;;;;;;-145.63;50.59;39161.13;5003955;28;20030;-65
2023/09/10 09:17:23;;;;;;;19.52;16.75;;;;;;;-145.63;50.93;39165.06;5019122;28;20303;-67
2023/09/10 09:19:50;;;;;;;20.42;17.90;;;;;;;-145.63;50.71;39153.31;5023443;28;20026;-68
2023/09/10 09:22:20;;;;;;;20.60;18.50;;;;;;;-145.63;51.15;39174.84;5023708;28;20033;-64
2023/09/10 09:24:47;;;;;;;17.63;15.77;;;;;;;-145.63;50.25;39176.78;5023556;28;20203;-63
2023/09/10 09:27:13;;;;;;;17.88;16.00;;;;;;;-145.63;50.36;39165.06;5023759;28;20069;-63
2023/09/10 09:29:40;;;;;;;17.83;15.95;;;;;;;-145.63;50.52;39108.34;5023335;28;20306;-64
2023/09/10 09:32:05;;;;;;;16.95;15.15;;;;;;;-145.63;50.54;39129.84;5023398;28;20022;-65
2023/09/10 09:34:32;;;;;;;18.67;16.83;;;;;;;-145.63;50.78;39176.78;5023534;28;20022;-65
2023/09/10 09:36:58;;;;;;;16.83;15.13;;;;;;;-145.63;50.28;39161.13;5023074;28;20160;-66
2023/09/10 09:39:24;;;;;;;20.65;18.50;;;;;;;-145.63;50.30;39141.59;5023710;28;20037;-66
2023/09/10 09:41:54;;;;;;;18.80;16.90;;;;;;;-145.63;50.22;39155.28;5023448;28;20033;-67
2023/09/10 09:44:20;;;;;;;17.67;15.82;;;;;;;-145.63;50.61;39137.69;5023768;28;20029;-66
2023/09/10 09:46:47;;;;;;;17.25;15.45;;;;;;;-145.63;50.07;39118.13;5023482;28;20090;-65
2023/09/10 09:49:13;;;;;;;17.00;15.25;;;;;;;-145.63;50.17;38727.00;5023239;28;20052;-66
2023/09/10 09:51:40;;;;;;;17.25;15.50;;;;;;;-145.63;49.92;39153.31;5023103;28;20060;-66
2023/09/10 09:54:09;;;;;;;17.35;15.57;;;;;;;-145.63;49.79;39141.59;5022062;28;20029;-65
2023/09/10 09:56:37;;;;;;;16.70;15.10;;;;;;;-145.63;49.76;39163.09;5026365;28;20044;-63
2023/09/10 09:59:03;;;;;;;17.17;15.45;;;;;;;-145.63;49.80;39067.28;5026964;28;20029;-63
2023/09/10 10:01:29;;;;;;;26.88;24.05;;;;;;;-145.63;49.40;39055.53;5027198;28;20195;-65
2023/09/10 10:03:57;;;;;;;23.23;20.83;;;;;;;-145.63;49.19;39045.75;5026945;28;20022;-66
2023/09/10 10:06:23;;;;;;;17.65;15.60;;;;;;;-145.63;48.90;39022.28;5027263;28;20030;-65
2023/09/10 10:08:50;;;;;;;16.80;15.05;;;;;;;-145.63;48.76;39055.53;5027106;28;20290;-67
2023/09/10 10:11:37;;;;;;;17.63;15.10;;;;;;;-145.63;48.28;39035.97;5027110;28;20025;-64
2023/09/10 10:14:04;;;;;;;16.42;14.68;;;;;;;-145.63;48.78;39086.81;5026509;28;20236;-64
2023/09/10 10:16:30;;;;;;;19.50;14.70;;;;;;;-145.63;48.50;39059.44;5026838;28;20077;-64
2023/09/10 10:18:57;;;;;;;15.25;13.65;;;;;;;-145.63;49.01;39114.22;5026754;28;20041;-64
2023/09/10 10:21:23;;;;;;;23.77;17.15;;;;;;;-145.63;48.43;39059.44;5026748;28;20121;-63
2023/09/10 10:23:51;;;;;;;14.48;12.88;;;;;;;-145.63;47.93;39012.50;5026341;28;20042;-64
2023/09/10 10:26:18;;;;;;;15.73;13.02;;;;;;;-145.63;47.66;39000.78;5026461;28;20029;-64
2023/09/10 10:28:48;;;;;;;26.83;15.25;;;;;;;-145.63;47.32;39034.03;5025395;28;20100;-64
2023/09/10 10:31:36;;;;;;;21.08;14.75;;;;;;;-145.63;46.85;39051.63;5026060;28;20484;-65
2023/09/10 10:34:15;;;;;;;16.88;12.50;;;;;;;-145.63;46.92;39008.59;5026123;28;20029;-64
2023/09/10 10:37:24;;;;;;;13.48;11.98;;;;;;;-145.63;46.65;39034.03;5026292;28;20326;-64
2023/09/10 10:39:56;;;;;;;13.65;11.68;;;;;;;-145.63;46.72;38985.13;5020609;28;20349;-68
2023/09/10 10:42:33;;;;;;;27.95;15.85;;;;;;;-145.63;47.13;39020.34;5026607;28;20250;-67
2023/09/10 10:45:04;;;;;;;14.65;12.25;;;;;;;-145.63;47.15;39016.44;5026326;28;20068;-67
2023/09/10 10:47:36;;;;;;;14.07;12.50;;;;;;;-145.63;46.14;39012.50;5026469;28;20193;-66
2023/09/10 10:50:02;;;;;;;;;;;;;;;-145.63;46.36;39090.75;5026868;28;20041;-65
2023/09/10 10:52:31;;;;;;;13.38;12.05;;;;;;;-145.63;46.54;39016.44;5026189;28;19924;-71
2023/09/10 10:54:57;;;;;;;15.80;13.98;;;;;;;-145.63;46.84;39065.31;5025954;28;20025;-69
2023/09/10 10:57:25;;;;;;;16.88;14.43;;;;;;;-145.63;47.19;39026.19;5026334;28;20032;-66
2023/09/10 10:59:52;;;;;;;11.35;10.25;;;;;;;-145.63;46.27;39053.59;5026071;28;20105;-68
2023/09/10 11:02:23;;;;;;;13.65;10.27;;;;;;;-145.63;46.61;39231.53;5015255;28;20103;-68
2023/09/10 11:04:54;;;;;;;12.10;10.33;;;;;;;-145.63;46.12;38973.41;5016197;28;20022;-67